sensor_id;sensor_type;location;lat;lon;timestamp;P1;durP1;ratioP1;P2;durP2;ratioP2
33094;SDS011;19459;53.044;8.910;2022-12-07T00:01:29;52.63;;;21.33;;
33094;SDS011;19459;53.044;8.910;2022-12-07T00:03:59;40.65;;;21.02;;
33094;SDS011;19459;53.044;8.910;2022-12-07T00:06:30;45.63;;;20.55;;
33094;SDS011;19459;53.044;8.910;2022-12-07T00:09:12;42.47;;;20.33;;
33094;SDS011;19459;53.044;8.910;2022-12-07T00:11:39;43.35;;;20.30;;
33094;SDS011;19459;53.044;8.910;2022-12-07T00:14:06;43.20;;;19.80;;
33094;SDS011;19459;53.044;8.910;2022-12-07T00:19:05;38.03;;;18.85;;
33094;SDS011;19459;53.044;8.910;2022-12-07T00:21:32;39.90;;;18.40;;
33094;SDS011;19459;53.044;8.910;2022-12-07T00:24:00;39.53;;;16.90;;
33094;SDS011;19459;53.044;8.910;2022-12-07T00:26:28;38.10;;;16.80;;
33094;SDS011;19459;53.044;8.910;2022-12-07T00:28:58;29.63;;;14.75;;
33094;SDS011;19459;53.044;8.910;2022-12-07T00:31:28;29.33;;;15.10;;
33094;SDS011;19459;53.044;8.910;2022-12-07T00:33:58;32.22;;;15.52;;
33094;SDS011;19459;53.044;8.910;2022-12-07T00:36:24;33.20;;;15.93;;
33094;SDS011;19459;53.044;8.910;2022-12-07T00:38:50;33.58;;;14.20;;
33094;SDS011;19459;53.044;8.910;2022-12-07T00:41:18;34.55;;;14.45;;
33094;SDS011;19459;53.044;8.910;2022-12-07T00:43:47;28.90;;;14.57;;
33094;SDS011;19459;53.044;8.910;2022-12-07T00:46:14;34.80;;;14.05;;
33094;SDS011;19459;53.044;8.910;2022-12-07T00:48:41;30.10;;;14.85;;
33094;SDS011;19459;53.044;8.910;2022-12-07T00:51:07;34.65;;;15.05;;
33094;SDS011;19459;53.044;8.910;2022-12-07T00:53:35;31.52;;;13.82;;
33094;SDS011;19459;53.044;8.910;2022-12-07T00:56:08;27.60;;;13.40;;
33094;SDS011;19459;53.044;8.910;2022-12-07T00:59:11;34.38;;;14.90;;
33094;SDS011;19459;53.044;8.910;2022-12-07T01:01:38;29.10;;;14.10;;
33094;SDS011;19459;53.044;8.910;2022-12-07T01:04:04;29.75;;;14.18;;
33094;SDS011;19459;53.044;8.910;2022-12-07T01:06:30;32.70;;;14.82;;
33094;SDS011;19459;53.044;8.910;2022-12-07T01:08:56;28.90;;;13.90;;
33094;SDS011;19459;53.044;8.910;2022-12-07T01:11:24;34.30;;;13.98;;
33094;SDS011;19459;53.044;8.910;2022-12-07T01:13:54;24.73;;;11.88;;
33094;SDS011;19459;53.044;8.910;2022-12-07T01:16:22;24.55;;;12.05;;
33094;SDS011;19459;53.044;8.910;2022-12-07T01:18:51;30.88;;;13.48;;
33094;SDS011;19459;53.044;8.910;2022-12-07T01:21:23;24.65;;;11.77;;
33094;SDS011;19459;53.044;8.910;2022-12-07T01:23:56;33.30;;;13.00;;
33094;SDS011;19459;53.044;8.910;2022-12-07T01:26:23;29.73;;;12.02;;
33094;SDS011;19459;53.044;8.910;2022-12-07T01:28:50;27.65;;;13.75;;
33094;SDS011;19459;53.044;8.910;2022-12-07T01:31:17;27.00;;;12.48;;
33094;SDS011;19459;53.044;8.910;2022-12-07T01:33:47;26.25;;;12.23;;
33094;SDS011;19459;53.044;8.910;2022-12-07T01:36:17;23.95;;;11.07;;
33094;SDS011;19459;53.044;8.910;2022-12-07T01:38:47;25.20;;;12.88;;
33094;SDS011;19459;53.044;8.910;2022-12-07T01:41:20;22.80;;;9.93;;
33094;SDS011;19459;53.044;8.910;2022-12-07T01:46:39;23.38;;;8.35;;
33094;SDS011;19459;53.044;8.910;2022-12-07T01:49:06;24.80;;;10.13;;
33094;SDS011;19459;53.044;8.910;2022-12-07T01:51:37;20.80;;;8.20;;
33094;SDS011;19459;53.044;8.910;2022-12-07T01:54:06;20.20;;;8.43;;
33094;SDS011;19459;53.044;8.910;2022-12-07T01:56:32;19.88;;;8.30;;
33094;SDS011;19459;53.044;8.910;2022-12-07T01:58:58;18.77;;;7.78;;
33094;SDS011;19459;53.044;8.910;2022-12-07T02:01:25;22.30;;;7.32;;
33094;SDS011;19459;53.044;8.910;2022-12-07T02:03:51;20.83;;;7.28;;
33094;SDS011;19459;53.044;8.910;2022-12-07T02:06:18;14.23;;;6.68;;
33094;SDS011;19459;53.044;8.910;2022-12-07T02:08:48;16.25;;;7.15;;
33094;SDS011;19459;53.044;8.910;2022-12-07T02:11:14;16.08;;;6.43;;
33094;SDS011;19459;53.044;8.910;2022-12-07T02:13:41;18.95;;;6.63;;
33094;SDS011;19459;53.044;8.910;2022-12-07T02:28:04;27.20;;;6.97;;
33094;SDS011;19459;53.044;8.910;2022-12-07T02:30:40;14.73;;;5.95;;
33094;SDS011;19459;53.044;8.910;2022-12-07T02:33:19;17.45;;;5.65;;
33094;SDS011;19459;53.044;8.910;2022-12-07T02:36:10;20.63;;;6.72;;
33094;SDS011;19459;53.044;8.910;2022-12-07T02:38:58;19.15;;;7.60;;
33094;SDS011;19459;53.044;8.910;2022-12-07T02:41:51;16.55;;;7.53;;
33094;SDS011;19459;53.044;8.910;2022-12-07T02:44:23;12.18;;;6.57;;
33094;SDS011;19459;53.044;8.910;2022-12-07T02:46:53;21.77;;;7.90;;
33094;SDS011;19459;53.044;8.910;2022-12-07T02:49:27;15.98;;;7.55;;
33094;SDS011;19459;53.044;8.910;2022-12-07T02:51:53;20.95;;;7.63;;
33094;SDS011;19459;53.044;8.910;2022-12-07T02:54:20;22.52;;;7.60;;
33094;SDS011;19459;53.044;8.910;2022-12-07T02:59:46;18.80;;;8.38;;
33094;SDS011;19459;53.044;8.910;2022-12-07T03:11:02;21.42;;;9.50;;
33094;SDS011;19459;53.044;8.910;2022-12-07T03:13:34;24.20;;;8.70;;
33094;SDS011;19459;53.044;8.910;2022-12-07T03:16:40;18.48;;;8.20;;
33094;SDS011;19459;53.044;8.910;2022-12-07T03:19:15;19.75;;;8.23;;
33094;SDS011;19459;53.044;8.910;2022-12-07T03:21:59;21.80;;;8.00;;
33094;SDS011;19459;53.044;8.910;2022-12-07T03:24:37;16.13;;;7.18;;
33094;SDS011;19459;53.044;8.910;2022-12-07T03:27:13;20.23;;;6.85;;
33094;SDS011;19459;53.044;8.910;2022-12-07T03:33:03;14.95;;;5.82;;
33094;SDS011;19459;53.044;8.910;2022-12-07T03:35:50;10.98;;;4.47;;
33094;SDS011;19459;53.044;8.910;2022-12-07T03:38:25;11.38;;;4.53;;
33094;SDS011;19459;53.044;8.910;2022-12-07T03:41:04;10.10;;;3.70;;
33094;SDS011;19459;53.044;8.910;2022-12-07T03:43:36;12.75;;;3.80;;
33094;SDS011;19459;53.044;8.910;2022-12-07T03:48:59;8.95;;;2.80;;
33094;SDS011;19459;53.044;8.910;2022-12-07T03:56:56;6.57;;;2.75;;
33094;SDS011;19459;53.044;8.910;2022-12-07T03:59:23;8.68;;;2.03;;
33094;SDS011;19459;53.044;8.910;2022-12-07T04:01:55;7.63;;;2.60;;
33094;SDS011;19459;53.044;8.910;2022-12-07T04:04:24;7.63;;;2.17;;
33094;SDS011;19459;53.044;8.910;2022-12-07T04:06:50;11.95;;;3.40;;
33094;SDS011;19459;53.044;8.910;2022-12-07T04:09:16;17.85;;;4.75;;
33094;SDS011;19459;53.044;8.910;2022-12-07T04:11:42;13.30;;;4.32;;
33094;SDS011;19459;53.044;8.910;2022-12-07T04:14:08;11.48;;;4.78;;
33094;SDS011;19459;53.044;8.910;2022-12-07T04:16:46;16.63;;;6.07;;
33094;SDS011;19459;53.044;8.910;2022-12-07T04:19:30;24.33;;;7.40;;
33094;SDS011;19459;53.044;8.910;2022-12-07T04:21:58;17.83;;;6.57;;
33094;SDS011;19459;53.044;8.910;2022-12-07T04:24:29;20.13;;;6.88;;
33094;SDS011;19459;53.044;8.910;2022-12-07T04:26:55;15.30;;;6.97;;
33094;SDS011;19459;53.044;8.910;2022-12-07T04:29:21;20.20;;;6.70;;
33094;SDS011;19459;53.044;8.910;2022-12-07T04:31:47;16.25;;;6.70;;
33094;SDS011;19459;53.044;8.910;2022-12-07T04:34:14;19.90;;;7.65;;
33094;SDS011;19459;53.044;8.910;2022-12-07T04:36:41;22.33;;;8.32;;
33094;SDS011;19459;53.044;8.910;2022-12-07T04:39:07;23.45;;;9.30;;
33094;SDS011;19459;53.044;8.910;2022-12-07T04:41:43;23.00;;;8.52;;
33094;SDS011;19459;53.044;8.910;2022-12-07T04:44:09;26.90;;;9.35;;
33094;SDS011;19459;53.044;8.910;2022-12-07T04:46:35;17.17;;;8.45;;
33094;SDS011;19459;53.044;8.910;2022-12-07T04:49:01;25.88;;;9.40;;
33094;SDS011;19459;53.044;8.910;2022-12-07T04:51:28;26.77;;;9.85;;
33094;SDS011;19459;53.044;8.910;2022-12-07T04:53:54;25.63;;;11.02;;
33094;SDS011;19459;53.044;8.910;2022-12-07T04:56:21;22.23;;;9.60;;
33094;SDS011;19459;53.044;8.910;2022-12-07T04:58:47;23.58;;;10.27;;
33094;SDS011;19459;53.044;8.910;2022-12-07T05:01:14;24.65;;;10.07;;
33094;SDS011;19459;53.044;8.910;2022-12-07T05:03:41;24.73;;;10.98;;
33094;SDS011;19459;53.044;8.910;2022-12-07T05:06:08;21.90;;;9.25;;
33094;SDS011;19459;53.044;8.910;2022-12-07T05:08:35;21.70;;;8.32;;
33094;SDS011;19459;53.044;8.910;2022-12-07T05:11:02;29.50;;;10.30;;
33094;SDS011;19459;53.044;8.910;2022-12-07T05:13:28;22.40;;;8.32;;
33094;SDS011;19459;53.044;8.910;2022-12-07T05:15:56;20.65;;;8.70;;
33094;SDS011;19459;53.044;8.910;2022-12-07T05:18:21;17.40;;;8.05;;
33094;SDS011;19459;53.044;8.910;2022-12-07T05:20:48;24.75;;;9.05;;
33094;SDS011;19459;53.044;8.910;2022-12-07T05:23:15;18.30;;;8.15;;
33094;SDS011;19459;53.044;8.910;2022-12-07T05:25:42;15.75;;;7.40;;
33094;SDS011;19459;53.044;8.910;2022-12-07T05:28:08;20.00;;;7.43;;
33094;SDS011;19459;53.044;8.910;2022-12-07T05:30:34;20.48;;;7.35;;
33094;SDS011;19459;53.044;8.910;2022-12-07T05:32:59;22.00;;;6.60;;
33094;SDS011;19459;53.044;8.910;2022-12-07T05:35:25;19.23;;;6.90;;
33094;SDS011;19459;53.044;8.910;2022-12-07T05:37:51;15.32;;;5.45;;
33094;SDS011;19459;53.044;8.910;2022-12-07T05:40:17;14.82;;;6.22;;
33094;SDS011;19459;53.044;8.910;2022-12-07T05:42:44;15.23;;;5.80;;
33094;SDS011;19459;53.044;8.910;2022-12-07T05:45:10;19.63;;;7.20;;
33094;SDS011;19459;53.044;8.910;2022-12-07T05:47:36;14.45;;;6.07;;
33094;SDS011;19459;53.044;8.910;2022-12-07T05:50:04;14.45;;;5.35;;
33094;SDS011;19459;53.044;8.910;2022-12-07T05:52:31;15.18;;;4.60;;
33094;SDS011;19459;53.044;8.910;2022-12-07T05:54:57;12.02;;;5.35;;
33094;SDS011;19459;53.044;8.910;2022-12-07T05:57:23;14.95;;;5.57;;
33094;SDS011;19459;53.044;8.910;2022-12-07T05:59:49;14.85;;;4.93;;
33094;SDS011;19459;53.044;8.910;2022-12-07T06:02:15;12.50;;;4.75;;
33094;SDS011;19459;53.044;8.910;2022-12-07T06:04:43;14.63;;;4.30;;
33094;SDS011;19459;53.044;8.910;2022-12-07T06:07:11;15.00;;;4.57;;
33094;SDS011;19459;53.044;8.910;2022-12-07T06:09:39;15.75;;;4.50;;
33094;SDS011;19459;53.044;8.910;2022-12-07T06:12:05;12.90;;;3.45;;
33094;SDS011;19459;53.044;8.910;2022-12-07T06:14:55;22.58;;;5.95;;
33094;SDS011;19459;53.044;8.910;2022-12-07T06:17:21;10.32;;;4.55;;
33094;SDS011;19459;53.044;8.910;2022-12-07T06:19:47;20.08;;;3.80;;
33094;SDS011;19459;53.044;8.910;2022-12-07T06:22:12;16.85;;;3.92;;
33094;SDS011;19459;53.044;8.910;2022-12-07T06:24:39;19.23;;;3.95;;
33094;SDS011;19459;53.044;8.910;2022-12-07T06:27:05;9.10;;;3.63;;
33094;SDS011;19459;53.044;8.910;2022-12-07T06:29:31;11.73;;;3.95;;
33094;SDS011;19459;53.044;8.910;2022-12-07T06:31:57;16.58;;;4.10;;
33094;SDS011;19459;53.044;8.910;2022-12-07T06:34:24;14.90;;;4.55;;
33094;SDS011;19459;53.044;8.910;2022-12-07T06:36:50;7.53;;;3.38;;
33094;SDS011;19459;53.044;8.910;2022-12-07T06:39:19;12.82;;;3.30;;
33094;SDS011;19459;53.044;8.910;2022-12-07T06:41:46;16.40;;;3.42;;
33094;SDS011;19459;53.044;8.910;2022-12-07T06:44:12;10.07;;;3.40;;
33094;SDS011;19459;53.044;8.910;2022-12-07T06:46:38;11.75;;;3.22;;
33094;SDS011;19459;53.044;8.910;2022-12-07T06:49:04;12.48;;;4.30;;
33094;SDS011;19459;53.044;8.910;2022-12-07T06:51:31;9.32;;;3.85;;
33094;SDS011;19459;53.044;8.910;2022-12-07T06:54:00;15.68;;;3.10;;
33094;SDS011;19459;53.044;8.910;2022-12-07T06:56:25;8.93;;;3.55;;
33094;SDS011;19459;53.044;8.910;2022-12-07T06:58:51;8.63;;;3.03;;
33094;SDS011;19459;53.044;8.910;2022-12-07T07:01:17;9.00;;;3.25;;
33094;SDS011;19459;53.044;8.910;2022-12-07T07:03:44;8.20;;;3.45;;
33094;SDS011;19459;53.044;8.910;2022-12-07T07:06:11;12.10;;;3.50;;
33094;SDS011;19459;53.044;8.910;2022-12-07T07:08:38;11.25;;;2.90;;
33094;SDS011;19459;53.044;8.910;2022-12-07T07:11:05;9.15;;;3.22;;
33094;SDS011;19459;53.044;8.910;2022-12-07T07:13:32;15.68;;;3.35;;
33094;SDS011;19459;53.044;8.910;2022-12-07T07:15:58;18.75;;;4.53;;
33094;SDS011;19459;53.044;8.910;2022-12-07T07:18:24;13.52;;;4.65;;
33094;SDS011;19459;53.044;8.910;2022-12-07T07:20:51;13.90;;;3.13;;
33094;SDS011;19459;53.044;8.910;2022-12-07T07:23:18;17.88;;;3.22;;
33094;SDS011;19459;53.044;8.910;2022-12-07T07:25:45;5.47;;;3.33;;
33094;SDS011;19459;53.044;8.910;2022-12-07T07:28:11;13.68;;;3.45;;
33094;SDS011;19459;53.044;8.910;2022-12-07T07:30:37;15.50;;;4.65;;
33094;SDS011;19459;53.044;8.910;2022-12-07T07:33:03;10.85;;;2.92;;
33094;SDS011;19459;53.044;8.910;2022-12-07T07:35:31;10.88;;;3.38;;
33094;SDS011;19459;53.044;8.910;2022-12-07T07:37:58;20.60;;;3.65;;
33094;SDS011;19459;53.044;8.910;2022-12-07T07:40:25;13.00;;;4.07;;
33094;SDS011;19459;53.044;8.910;2022-12-07T07:42:53;9.50;;;3.97;;
33094;SDS011;19459;53.044;8.910;2022-12-07T07:45:21;11.32;;;2.85;;
33094;SDS011;19459;53.044;8.910;2022-12-07T07:47:48;11.73;;;4.18;;
33094;SDS011;19459;53.044;8.910;2022-12-07T07:50:15;9.68;;;4.43;;
33094;SDS011;19459;53.044;8.910;2022-12-07T07:52:42;14.02;;;3.25;;
33094;SDS011;19459;53.044;8.910;2022-12-07T07:55:09;14.63;;;3.92;;
33094;SDS011;19459;53.044;8.910;2022-12-07T07:57:35;14.88;;;4.18;;
33094;SDS011;19459;53.044;8.910;2022-12-07T08:00:10;11.57;;;3.60;;
33094;SDS011;19459;53.044;8.910;2022-12-07T08:02:39;6.65;;;2.85;;
33094;SDS011;19459;53.044;8.910;2022-12-07T08:05:07;11.70;;;2.90;;
33094;SDS011;19459;53.044;8.910;2022-12-07T08:07:34;12.35;;;3.60;;
33094;SDS011;19459;53.044;8.910;2022-12-07T08:10:00;8.63;;;3.22;;
33094;SDS011;19459;53.044;8.910;2022-12-07T08:12:25;14.50;;;3.17;;
33094;SDS011;19459;53.044;8.910;2022-12-07T08:14:51;8.85;;;3.85;;
33094;SDS011;19459;53.044;8.910;2022-12-07T08:17:18;13.40;;;3.05;;
33094;SDS011;19459;53.044;8.910;2022-12-07T08:19:43;12.38;;;3.05;;
33094;SDS011;19459;53.044;8.910;2022-12-07T08:22:09;15.57;;;3.33;;
33094;SDS011;19459;53.044;8.910;2022-12-07T08:24:35;15.40;;;3.25;;
33094;SDS011;19459;53.044;8.910;2022-12-07T08:27:01;12.23;;;2.90;;
33094;SDS011;19459;53.044;8.910;2022-12-07T08:29:28;10.82;;;3.55;;
33094;SDS011;19459;53.044;8.910;2022-12-07T08:31:54;9.85;;;2.78;;
33094;SDS011;19459;53.044;8.910;2022-12-07T08:34:20;7.25;;;2.65;;
33094;SDS011;19459;53.044;8.910;2022-12-07T08:36:46;7.50;;;2.97;;
33094;SDS011;19459;53.044;8.910;2022-12-07T08:39:11;4.85;;;2.58;;
33094;SDS011;19459;53.044;8.910;2022-12-07T08:41:37;7.20;;;2.85;;
33094;SDS011;19459;53.044;8.910;2022-12-07T08:44:03;15.15;;;3.35;;
33094;SDS011;19459;53.044;8.910;2022-12-07T08:46:34;6.07;;;3.25;;
33094;SDS011;19459;53.044;8.910;2022-12-07T08:49:11;9.23;;;2.75;;
33094;SDS011;19459;53.044;8.910;2022-12-07T08:51:44;7.43;;;2.60;;
33094;SDS011;19459;53.044;8.910;2022-12-07T08:54:11;5.38;;;2.40;;
33094;SDS011;19459;53.044;8.910;2022-12-07T08:56:42;9.65;;;4.20;;
33094;SDS011;19459;53.044;8.910;2022-12-07T08:59:10;5.47;;;3.00;;
33094;SDS011;19459;53.044;8.910;2022-12-07T09:01:38;7.57;;;2.92;;
33094;SDS011;19459;53.044;8.910;2022-12-07T09:04:04;7.82;;;2.92;;
33094;SDS011;19459;53.044;8.910;2022-12-07T09:06:30;11.32;;;2.85;;
33094;SDS011;19459;53.044;8.910;2022-12-07T09:08:56;8.25;;;2.25;;
33094;SDS011;19459;53.044;8.910;2022-12-07T09:11:24;4.18;;;1.77;;
33094;SDS011;19459;53.044;8.910;2022-12-07T09:13:49;9.02;;;2.20;;
33094;SDS011;19459;53.044;8.910;2022-12-07T09:16:15;6.47;;;1.45;;
33094;SDS011;19459;53.044;8.910;2022-12-07T09:18:41;8.70;;;1.65;;
33094;SDS011;19459;53.044;8.910;2022-12-07T09:21:07;12.20;;;1.80;;
33094;SDS011;19459;53.044;8.910;2022-12-07T09:23:33;4.68;;;1.80;;
33094;SDS011;19459;53.044;8.910;2022-12-07T09:26:00;5.82;;;1.30;;
33094;SDS011;19459;53.044;8.910;2022-12-07T09:28:27;8.32;;;1.48;;
33094;SDS011;19459;53.044;8.910;2022-12-07T09:30:53;6.55;;;1.70;;
33094;SDS011;19459;53.044;8.910;2022-12-07T09:33:19;4.25;;;1.30;;
33094;SDS011;19459;53.044;8.910;2022-12-07T09:35:45;8.50;;;2.72;;
33094;SDS011;19459;53.044;8.910;2022-12-07T09:38:15;10.10;;;2.28;;
33094;SDS011;19459;53.044;8.910;2022-12-07T09:40:43;5.65;;;1.85;;
33094;SDS011;19459;53.044;8.910;2022-12-07T09:43:27;6.65;;;2.30;;
33094;SDS011;19459;53.044;8.910;2022-12-07T09:45:53;4.95;;;2.00;;
33094;SDS011;19459;53.044;8.910;2022-12-07T09:48:21;7.38;;;1.85;;
33094;SDS011;19459;53.044;8.910;2022-12-07T09:50:57;6.43;;;2.25;;
33094;SDS011;19459;53.044;8.910;2022-12-07T09:53:27;4.38;;;2.13;;
33094;SDS011;19459;53.044;8.910;2022-12-07T09:55:58;8.18;;;2.70;;
33094;SDS011;19459;53.044;8.910;2022-12-07T09:58:25;7.60;;;2.42;;
33094;SDS011;19459;53.044;8.910;2022-12-07T10:03:33;2.90;;;1.92;;
33094;SDS011;19459;53.044;8.910;2022-12-07T10:06:01;7.18;;;2.65;;
33094;SDS011;19459;53.044;8.910;2022-12-07T10:08:27;7.97;;;2.03;;
33094;SDS011;19459;53.044;8.910;2022-12-07T10:10:56;10.20;;;2.50;;
33094;SDS011;19459;53.044;8.910;2022-12-07T10:13:34;11.40;;;2.38;;
33094;SDS011;19459;53.044;8.910;2022-12-07T10:18:49;9.13;;;2.55;;
33094;SDS011;19459;53.044;8.910;2022-12-07T10:26:38;3.97;;;2.00;;
33094;SDS011;19459;53.044;8.910;2022-12-07T10:29:18;6.70;;;2.47;;
33094;SDS011;19459;53.044;8.910;2022-12-07T10:31:54;7.53;;;2.08;;
33094;SDS011;19459;53.044;8.910;2022-12-07T10:37:06;8.85;;;2.05;;
33094;SDS011;19459;53.044;8.910;2022-12-07T10:39:52;4.28;;;2.58;;
33094;SDS011;19459;53.044;8.910;2022-12-07T10:42:22;7.35;;;2.33;;
33094;SDS011;19459;53.044;8.910;2022-12-07T10:47:38;6.65;;;2.00;;
33094;SDS011;19459;53.044;8.910;2022-12-07T10:59:37;11.65;;;2.42;;
33094;SDS011;19459;53.044;8.910;2022-12-07T11:16:36;7.38;;;1.67;;
33094;SDS011;19459;53.044;8.910;2022-12-07T11:25:59;9.98;;;2.30;;
33094;SDS011;19459;53.044;8.910;2022-12-07T11:29:03;12.70;;;2.67;;
33094;SDS011;19459;53.044;8.910;2022-12-07T11:39:12;9.60;;;2.33;;
33094;SDS011;19459;53.044;8.910;2022-12-07T11:41:19;9.88;;;2.20;;
33094;SDS011;19459;53.044;8.910;2022-12-07T11:44:07;5.82;;;2.30;;
33094;SDS011;19459;53.044;8.910;2022-12-07T11:46:44;6.75;;;2.38;;
33094;SDS011;19459;53.044;8.910;2022-12-07T11:52:11;8.38;;;2.67;;
33094;SDS011;19459;53.044;8.910;2022-12-07T11:55:06;9.45;;;3.10;;
33094;SDS011;19459;53.044;8.910;2022-12-07T11:58:13;17.27;;;3.17;;
33094;SDS011;19459;53.044;8.910;2022-12-07T12:03:54;9.45;;;2.22;;
33094;SDS011;19459;53.044;8.910;2022-12-07T12:06:40;12.65;;;2.53;;
33094;SDS011;19459;53.044;8.910;2022-12-07T12:09:16;17.33;;;2.15;;
33094;SDS011;19459;53.044;8.910;2022-12-07T12:12:01;12.13;;;2.50;;
33094;SDS011;19459;53.044;8.910;2022-12-07T12:18:49;9.63;;;1.75;;
33094;SDS011;19459;53.044;8.910;2022-12-07T12:21:34;10.25;;;2.42;;
33094;SDS011;19459;53.044;8.910;2022-12-07T12:24:02;10.05;;;2.22;;
33094;SDS011;19459;53.044;8.910;2022-12-07T12:26:48;10.25;;;2.90;;
33094;SDS011;19459;53.044;8.910;2022-12-07T12:29:31;5.68;;;1.67;;
33094;SDS011;19459;53.044;8.910;2022-12-07T12:32:22;11.32;;;2.33;;
33094;SDS011;19459;53.044;8.910;2022-12-07T12:37:52;7.72;;;2.03;;
33094;SDS011;19459;53.044;8.910;2022-12-07T12:42:56;10.98;;;2.60;;
33094;SDS011;19459;53.044;8.910;2022-12-07T12:50:32;11.68;;;4.05;;
33094;SDS011;19459;53.044;8.910;2022-12-07T12:53:13;11.68;;;2.55;;
33094;SDS011;19459;53.044;8.910;2022-12-07T12:58:31;10.93;;;2.95;;
33094;SDS011;19459;53.044;8.910;2022-12-07T13:03:57;17.05;;;2.45;;
33094;SDS011;19459;53.044;8.910;2022-12-07T13:08:53;3.90;;;1.65;;
33094;SDS011;19459;53.044;8.910;2022-12-07T13:11:29;7.45;;;2.15;;
33094;SDS011;19459;53.044;8.910;2022-12-07T13:17:04;7.82;;;3.10;;
33094;SDS011;19459;53.044;8.910;2022-12-07T13:20:39;9.88;;;3.40;;
33094;SDS011;19459;53.044;8.910;2022-12-07T13:25:19;8.20;;;2.53;;
33094;SDS011;19459;53.044;8.910;2022-12-07T13:27:54;10.68;;;2.50;;
33094;SDS011;19459;53.044;8.910;2022-12-07T13:30:26;5.53;;;2.20;;
33094;SDS011;19459;53.044;8.910;2022-12-07T13:32:55;9.85;;;2.13;;
33094;SDS011;19459;53.044;8.910;2022-12-07T13:35:30;8.02;;;1.58;;
33094;SDS011;19459;53.044;8.910;2022-12-07T13:38:15;12.98;;;2.40;;
33094;SDS011;19459;53.044;8.910;2022-12-07T13:41:04;9.05;;;3.08;;
33094;SDS011;19459;53.044;8.910;2022-12-07T13:43:59;10.18;;;3.30;;
33094;SDS011;19459;53.044;8.910;2022-12-07T13:46:53;9.32;;;3.20;;
33094;SDS011;19459;53.044;8.910;2022-12-07T13:49:32;12.00;;;3.08;;
33094;SDS011;19459;53.044;8.910;2022-12-07T13:54:48;6.28;;;3.33;;
33094;SDS011;19459;53.044;8.910;2022-12-07T13:57:20;8.80;;;4.32;;
33094;SDS011;19459;53.044;8.910;2022-12-07T13:59:47;12.57;;;4.40;;
33094;SDS011;19459;53.044;8.910;2022-12-07T14:02:17;9.80;;;4.15;;
33094;SDS011;19459;53.044;8.910;2022-12-07T14:07:56;21.92;;;5.80;;
33094;SDS011;19459;53.044;8.910;2022-12-07T14:13:03;50.08;;;15.90;;
33094;SDS011;19459;53.044;8.910;2022-12-07T14:15:57;15.15;;;5.40;;
33094;SDS011;19459;53.044;8.910;2022-12-07T14:21:06;7.55;;;2.22;;
33094;SDS011;19459;53.044;8.910;2022-12-07T14:23:42;8.52;;;3.13;;
33094;SDS011;19459;53.044;8.910;2022-12-07T14:26:12;5.35;;;2.30;;
33094;SDS011;19459;53.044;8.910;2022-12-07T14:28:42;10.82;;;2.55;;
33094;SDS011;19459;53.044;8.910;2022-12-07T14:31:12;5.75;;;2.17;;
33094;SDS011;19459;53.044;8.910;2022-12-07T14:33:44;7.97;;;2.00;;
33094;SDS011;19459;53.044;8.910;2022-12-07T14:36:11;7.78;;;2.00;;
33094;SDS011;19459;53.044;8.910;2022-12-07T14:38:38;12.43;;;2.80;;
33094;SDS011;19459;53.044;8.910;2022-12-07T14:41:12;6.10;;;2.08;;
33094;SDS011;19459;53.044;8.910;2022-12-07T14:43:59;10.02;;;2.60;;
33094;SDS011;19459;53.044;8.910;2022-12-07T14:46:25;9.23;;;2.00;;
33094;SDS011;19459;53.044;8.910;2022-12-07T14:48:51;10.60;;;2.38;;
33094;SDS011;19459;53.044;8.910;2022-12-07T14:51:17;8.18;;;2.42;;
33094;SDS011;19459;53.044;8.910;2022-12-07T14:53:44;4.00;;;1.90;;
33094;SDS011;19459;53.044;8.910;2022-12-07T14:56:14;8.32;;;2.30;;
33094;SDS011;19459;53.044;8.910;2022-12-07T14:58:39;13.88;;;2.90;;
33094;SDS011;19459;53.044;8.910;2022-12-07T15:01:06;15.18;;;2.55;;
33094;SDS011;19459;53.044;8.910;2022-12-07T15:03:31;7.93;;;2.95;;
33094;SDS011;19459;53.044;8.910;2022-12-07T15:05:59;9.85;;;2.67;;
33094;SDS011;19459;53.044;8.910;2022-12-07T15:08:25;7.53;;;2.33;;
33094;SDS011;19459;53.044;8.910;2022-12-07T15:10:51;4.68;;;1.80;;
33094;SDS011;19459;53.044;8.910;2022-12-07T15:13:17;4.32;;;1.80;;
33094;SDS011;19459;53.044;8.910;2022-12-07T15:16:02;4.10;;;2.55;;
33094;SDS011;19459;53.044;8.910;2022-12-07T15:18:28;10.55;;;2.20;;
33094;SDS011;19459;53.044;8.910;2022-12-07T15:20:54;6.63;;;2.40;;
33094;SDS011;19459;53.044;8.910;2022-12-07T15:23:19;9.80;;;2.28;;
33094;SDS011;19459;53.044;8.910;2022-12-07T15:25:47;14.43;;;2.05;;
33094;SDS011;19459;53.044;8.910;2022-12-07T15:28:14;8.77;;;2.13;;
33094;SDS011;19459;53.044;8.910;2022-12-07T15:30:41;9.45;;;2.15;;
33094;SDS011;19459;53.044;8.910;2022-12-07T15:33:09;6.55;;;2.20;;
33094;SDS011;19459;53.044;8.910;2022-12-07T15:35:42;7.95;;;2.78;;
33094;SDS011;19459;53.044;8.910;2022-12-07T15:38:10;5.75;;;2.38;;
33094;SDS011;19459;53.044;8.910;2022-12-07T15:40:36;14.35;;;3.25;;
33094;SDS011;19459;53.044;8.910;2022-12-07T15:43:02;8.60;;;3.58;;
33094;SDS011;19459;53.044;8.910;2022-12-07T15:45:29;10.82;;;4.72;;
33094;SDS011;19459;53.044;8.910;2022-12-07T15:47:55;8.85;;;5.88;;
33094;SDS011;19459;53.044;8.910;2022-12-07T15:50:21;8.93;;;5.03;;
33094;SDS011;19459;53.044;8.910;2022-12-07T15:52:47;11.05;;;5.63;;
33094;SDS011;19459;53.044;8.910;2022-12-07T15:55:13;11.05;;;5.70;;
33094;SDS011;19459;53.044;8.910;2022-12-07T15:57:39;16.90;;;7.07;;
33094;SDS011;19459;53.044;8.910;2022-12-07T16:00:06;11.50;;;7.60;;
33094;SDS011;19459;53.044;8.910;2022-12-07T16:02:36;15.90;;;6.28;;
33094;SDS011;19459;53.044;8.910;2022-12-07T16:05:02;14.70;;;8.30;;
33094;SDS011;19459;53.044;8.910;2022-12-07T16:07:28;11.60;;;7.03;;
33094;SDS011;19459;53.044;8.910;2022-12-07T16:09:54;18.73;;;8.48;;
33094;SDS011;19459;53.044;8.910;2022-12-07T16:12:20;56.42;;;29.77;;
33094;SDS011;19459;53.044;8.910;2022-12-07T16:14:46;28.23;;;14.70;;
33094;SDS011;19459;53.044;8.910;2022-12-07T16:17:11;11.73;;;6.63;;
33094;SDS011;19459;53.044;8.910;2022-12-07T16:19:38;12.00;;;5.18;;
33094;SDS011;19459;53.044;8.910;2022-12-07T16:22:04;20.80;;;7.60;;
33094;SDS011;19459;53.044;8.910;2022-12-07T16:24:30;13.40;;;6.50;;
33094;SDS011;19459;53.044;8.910;2022-12-07T16:26:56;25.33;;;11.30;;
33094;SDS011;19459;53.044;8.910;2022-12-07T16:29:22;19.92;;;9.27;;
33094;SDS011;19459;53.044;8.910;2022-12-07T16:31:48;21.58;;;9.82;;
33094;SDS011;19459;53.044;8.910;2022-12-07T16:34:15;24.27;;;10.60;;
33094;SDS011;19459;53.044;8.910;2022-12-07T16:36:42;32.67;;;12.43;;
33094;SDS011;19459;53.044;8.910;2022-12-07T16:39:08;19.98;;;8.45;;
33094;SDS011;19459;53.044;8.910;2022-12-07T16:41:34;15.35;;;7.05;;
33094;SDS011;19459;53.044;8.910;2022-12-07T16:44:02;35.80;;;16.10;;
33094;SDS011;19459;53.044;8.910;2022-12-07T16:46:35;28.27;;;17.58;;
33094;SDS011;19459;53.044;8.910;2022-12-07T16:49:01;22.90;;;10.55;;
33094;SDS011;19459;53.044;8.910;2022-12-07T16:51:28;21.17;;;6.95;;
33094;SDS011;19459;53.044;8.910;2022-12-07T16:53:54;16.92;;;7.25;;
33094;SDS011;19459;53.044;8.910;2022-12-07T16:56:20;13.73;;;5.85;;
33094;SDS011;19459;53.044;8.910;2022-12-07T16:58:46;13.73;;;6.95;;
33094;SDS011;19459;53.044;8.910;2022-12-07T17:01:20;14.02;;;8.15;;
33094;SDS011;19459;53.044;8.910;2022-12-07T17:03:47;13.60;;;7.53;;
33094;SDS011;19459;53.044;8.910;2022-12-07T17:11:18;15.25;;;5.60;;
33094;SDS011;19459;53.044;8.910;2022-12-07T17:13:47;11.70;;;3.92;;
33094;SDS011;19459;53.044;8.910;2022-12-07T17:16:32;17.20;;;5.35;;
33094;SDS011;19459;53.044;8.910;2022-12-07T17:18:58;7.68;;;4.90;;